createdAt,value
2018-07-26T00:04:27.288Z,100911.81
2018-07-26T00:09:22.832Z,100910.14
2018-07-26T00:14:18.554Z,100904.80
2018-07-26T00:19:13.082Z,100906.83
2018-07-26T00:24:07.752Z,100902.80
2018-07-26T00:29:02.764Z,100909.27
2018-07-26T00:33:57.331Z,100910.27
2018-07-26T00:38:51.792Z,100918.41
2018-07-26T00:43:46.449Z,100925.70
2018-07-26T00:48:41.138Z,100919.42
2018-07-26T00:53:36.304Z,100905.59
2018-07-26T00:58:30.612Z,100907.30
2018-07-26T01:03:24.824Z,100904.58
2018-07-26T01:08:19.743Z,100910.70
2018-07-26T01:13:14.316Z,100904.13
2018-07-26T01:18:08.831Z,100900.73
2018-07-26T01:23:03.531Z,100898.72
2018-07-26T01:27:57.985Z,100903.65
2018-07-26T01:32:52.525Z,100908.55
2018-07-26T01:37:46.912Z,100917.35
2018-07-26T01:42:58.398Z,100919.68
2018-07-26T01:47:53.095Z,100924.58
2018-07-26T01:52:47.549Z,100925.43
2018-07-26T01:57:42.140Z,100920.34
2018-07-26T02:02:36.620Z,100914.12
2018-07-26T02:07:31.259Z,100907.02
2018-07-26T02:12:25.842Z,100909.20
2018-07-26T02:17:20.365Z,100906.33
2018-07-26T02:22:15.202Z,100906.16
2018-07-26T02:27:09.696Z,100914.12
2018-07-26T02:32:04.202Z,100911.23
2018-07-26T02:36:58.748Z,100907.34
2018-07-26T02:41:53.336Z,100904.95
2018-07-26T02:46:47.838Z,100910.70
2018-07-26T02:51:42.504Z,100908.27
2018-07-26T02:56:37.222Z,100908.11
2018-07-26T03:01:31.794Z,100914.51
2018-07-26T03:06:26.466Z,100918.37
2018-07-26T03:11:20.973Z,100915.83
2018-07-26T03:16:15.421Z,100918.17
2018-07-26T03:21:09.907Z,100923.57
2018-07-26T03:26:04.712Z,100923.25
2018-07-26T03:30:59.195Z,100918.17
2018-07-26T03:35:53.703Z,100919.00
2018-07-26T03:40:48.203Z,100913.76
2018-07-26T03:45:42.652Z,100918.59
2018-07-26T03:50:37.330Z,100924.66
2018-07-26T03:55:31.838Z,100924.11
2018-07-26T04:00:26.329Z,100930.00
2018-07-26T04:05:20.834Z,100929.14
2018-07-26T04:10:15.467Z,100925.30
2018-07-26T04:15:10.122Z,100928.16
2018-07-26T04:20:04.913Z,100925.51
2018-07-26T04:24:59.580Z,100928.08
2018-07-26T04:29:54.291Z,100930.66
2018-07-26T04:34:48.915Z,100934.21
2018-07-26T04:39:43.556Z,100944.02
2018-07-26T04:44:38.078Z,100945.41
2018-07-26T04:49:32.328Z,100940.75
2018-07-26T04:54:26.893Z,100946.02
2018-07-26T04:59:21.436Z,100942.48
2018-07-26T05:04:15.887Z,100940.12
2018-07-26T05:09:11.818Z,100934.04
2018-07-26T05:14:06.156Z,100931.07
2018-07-26T05:19:00.717Z,100935.84
2018-07-26T05:23:55.416Z,100950.19
2018-07-26T05:28:50.124Z,100952.33
2018-07-26T05:33:44.632Z,100944.77
2018-07-26T05:38:39.124Z,100942.70
2018-07-26T05:43:33.991Z,100946.59
2018-07-26T05:48:28.794Z,100959.23
2018-07-26T05:53:24.201Z,100960.14
2018-07-26T05:58:19.405Z,100954.89
2018-07-26T06:03:14.264Z,100965.93
2018-07-26T06:08:09.413Z,100964.53
2018-07-26T06:13:04.270Z,100960.56
2018-07-26T06:17:59.014Z,100964.48
2018-07-26T06:22:53.952Z,100960.91
2018-07-26T06:27:48.812Z,100955.91
2018-07-26T06:32:43.433Z,100957.20
2018-07-26T06:37:38.735Z,100953.44
2018-07-26T06:42:33.637Z,100963.72
2018-07-26T06:47:28.196Z,100964.21
2018-07-26T06:52:22.936Z,100961.75
2018-07-26T06:57:17.638Z,100955.86
2018-07-26T07:02:12.448Z,100961.92
2018-07-26T07:07:07.528Z,100957.61
2018-07-26T07:12:06.027Z,100959.16
2018-07-26T07:17:00.765Z,100950.08
2018-07-26T07:21:55.499Z,100952.67
2018-07-26T07:26:52.210Z,100954.86
2018-07-26T07:31:47.249Z,100956.28
2018-07-26T07:36:42.322Z,100951.23
2018-07-26T07:41:36.846Z,100954.12
2018-07-26T07:46:31.735Z,100950.97
2018-07-26T07:51:26.620Z,100949.27
2018-07-26T07:56:21.530Z,100947.38
2018-07-26T08:01:16.284Z,100938.67
2018-07-26T08:06:13.859Z,100944.20
2018-07-26T08:11:08.388Z,100935.22
2018-07-26T08:16:03.312Z,100941.94
2018-07-26T08:20:58.618Z,100930.33
2018-07-26T08:25:53.644Z,100934.59
2018-07-26T08:30:48.406Z,100931.61
2018-07-26T08:35:43.147Z,100933.25
2018-07-26T08:40:37.681Z,100942.92
2018-07-26T08:45:32.534Z,100929.41
2018-07-26T08:50:27.572Z,100928.42
2018-07-26T08:55:22.496Z,100936.77
2018-07-26T09:00:19.316Z,100932.56
2018-07-26T09:05:14.446Z,100935.45
2018-07-26T09:10:09.198Z,100937.48
2018-07-26T09:15:03.680Z,100938.59
2018-07-26T09:19:58.547Z,100930.58
2018-07-26T09:24:53.292Z,100920.70
2018-07-26T09:29:48.004Z,100925.68
2018-07-26T09:34:42.750Z,100917.94
2018-07-26T09:39:37.255Z,100918.99
2018-07-26T09:44:32.626Z,100905.36
2018-07-26T09:49:27.352Z,100897.39
2018-07-26T09:54:22.577Z,100891.42
2018-07-26T09:59:17.292Z,100882.23
2018-07-26T10:04:13.001Z,100881.42
2018-07-26T10:09:11.643Z,100869.38
2018-07-26T10:14:08.679Z,100861.30
2018-07-26T10:19:03.533Z,100852.28
2018-07-26T10:23:58.620Z,100855.91
2018-07-26T10:28:53.428Z,100860.06
2018-07-26T10:33:48.142Z,100846.19
2018-07-26T10:38:42.944Z,100837.83
2018-07-26T10:43:37.916Z,100834.77
2018-07-26T10:48:32.626Z,100822.52
2018-07-26T10:53:27.445Z,100819.70
2018-07-26T10:58:22.490Z,100822.78
2018-07-26T11:03:17.275Z,100816.45
2018-07-26T11:08:12.916Z,100822.91
2018-07-26T11:13:07.715Z,100815.92
2018-07-26T11:18:02.846Z,100817.42
2018-07-26T11:22:58.480Z,100826.30
2018-07-26T11:27:53.702Z,100816.16
2018-07-26T11:32:48.784Z,100806.19
2018-07-26T11:37:43.722Z,100802.69
2018-07-26T11:42:38.914Z,100793.47
2018-07-26T11:47:33.652Z,100794.16
2018-07-26T11:52:28.386Z,100786.61
2018-07-26T11:57:23.340Z,100800.11
2018-07-26T12:02:19.241Z,100785.36
2018-07-26T12:07:14.092Z,100776.83
2018-07-26T12:12:09.882Z,100764.95
2018-07-26T12:17:04.755Z,100762.80
2018-07-26T12:21:59.678Z,100756.13
2018-07-26T12:26:54.589Z,100759.50
2018-07-26T12:31:49.762Z,100760.41
2018-07-26T12:36:44.493Z,100746.66
2018-07-26T12:41:39.711Z,100733.58
2018-07-26T12:46:34.759Z,100731.33
2018-07-26T12:51:29.531Z,100727.54
2018-07-26T12:56:24.281Z,100729.28
2018-07-26T13:01:19.053Z,100719.73
2018-07-26T13:06:14.304Z,100718.92
2018-07-26T13:11:09.038Z,100721.05
2018-07-26T13:16:03.792Z,100719.66
2018-07-26T13:20:58.949Z,100711.92
2018-07-26T13:25:53.673Z,100702.48
2018-07-26T13:30:48.690Z,100708.44
2018-07-26T13:35:43.805Z,100694.38
2018-07-26T13:40:38.543Z,100690.93
2018-07-26T13:45:38.848Z,100681.13
2018-07-26T13:50:33.587Z,100671.37
2018-07-26T13:55:28.296Z,100681.56
2018-07-26T14:00:23.284Z,100672.78
2018-07-26T14:05:17.826Z,100675.69
2018-07-26T14:10:12.570Z,100676.38
2018-07-26T14:15:09.241Z,100668.06
2018-07-26T14:20:04.916Z,100666.68
2018-07-26T14:25:01.023Z,100664.73
2018-07-26T14:29:56.578Z,100662.31
2018-07-26T14:34:51.626Z,100659.30
2018-07-26T14:39:50.284Z,100647.72
2018-07-26T14:44:46.892Z,100646.63
2018-07-26T14:49:44.047Z,100652.39
2018-07-26T14:54:40.878Z,100640.70
2018-07-26T14:59:36.795Z,100643.52
2018-07-26T15:04:31.909Z,100643.75
2018-07-26T15:09:26.634Z,100641.55
2018-07-26T15:14:21.634Z,100643.74
2018-07-26T15:19:17.029Z,100640.92
2018-07-26T15:24:11.798Z,100647.02
2018-07-26T15:29:07.449Z,100645.45
2018-07-26T15:34:02.191Z,100631.09
2018-07-26T15:38:57.258Z,100628.94
2018-07-26T15:43:52.013Z,100630.66
2018-07-26T15:48:46.899Z,100620.70
2018-07-26T15:53:41.954Z,100611.84
2018-07-26T15:58:36.780Z,100624.56
2018-07-26T16:03:32.143Z,100620.99
2018-07-26T16:08:27.390Z,100630.05
2018-07-26T16:13:22.145Z,100620.11
2018-07-26T16:18:17.178Z,100615.68
2018-07-26T16:23:12.163Z,100629.48
2018-07-26T16:28:07.070Z,100630.75
2018-07-26T16:33:01.887Z,100630.37
2018-07-26T16:37:56.768Z,100637.26
2018-07-26T16:42:51.510Z,100643.24
2018-07-26T16:47:46.291Z,100648.44
2018-07-26T16:52:41.130Z,100639.64
2018-07-26T16:57:35.851Z,100641.23
2018-07-26T17:02:30.581Z,100625.27
2018-07-26T17:07:25.522Z,100630.69
2018-07-26T17:12:20.325Z,100637.53
2018-07-26T17:17:15.960Z,100644.64
2018-07-26T17:22:10.720Z,100641.25
2018-07-26T17:27:05.540Z,100650.31
2018-07-26T17:32:00.426Z,100642.81
2018-07-26T17:36:55.420Z,100637.36
2018-07-26T17:41:50.228Z,100636.76
2018-07-26T17:46:45.015Z,100644.37
2018-07-26T17:51:39.759Z,100645.53
2018-07-26T17:56:34.294Z,100643.00
2018-07-26T18:01:29.154Z,100649.23
2018-07-26T18:06:23.902Z,100656.61
2018-07-26T18:11:18.418Z,100659.25
2018-07-26T18:16:13.132Z,100653.78
2018-07-26T18:21:07.862Z,100650.28
2018-07-26T18:26:02.627Z,100662.09
2018-07-26T18:30:58.044Z,100659.68
2018-07-26T18:35:52.770Z,100662.45
2018-07-26T18:40:47.482Z,100659.05
2018-07-26T18:45:42.755Z,100661.55
2018-07-26T18:50:37.636Z,100666.13
2018-07-26T18:55:32.654Z,100674.26
2018-07-26T19:00:27.677Z,100688.47
2018-07-26T19:05:22.424Z,100697.14
2018-07-26T19:10:17.242Z,100694.09
2018-07-26T19:15:12.776Z,100705.63
2018-07-26T19:20:09.115Z,100713.47
2018-07-26T19:25:04.163Z,100719.58
2018-07-26T19:29:59.958Z,100724.97
2018-07-26T19:34:54.706Z,100722.84
2018-07-26T19:39:49.449Z,100733.94
2018-07-26T19:44:44.436Z,100735.47
2018-07-26T19:49:39.155Z,100743.83
2018-07-26T19:54:34.013Z,100744.48
2018-07-26T19:59:28.736Z,100739.47
2018-07-26T20:04:24.164Z,100738.87
2018-07-26T20:09:19.270Z,100752.98
2018-07-26T20:14:14.116Z,100758.85
2018-07-26T20:19:09.579Z,100768.93
2018-07-26T20:24:04.748Z,100752.27
2018-07-26T20:28:59.623Z,100750.14
2018-07-26T20:33:54.293Z,100759.48
2018-07-26T20:38:50.199Z,100762.30
2018-07-26T20:43:45.119Z,100757.77
2018-07-26T20:48:40.211Z,100762.48
2018-07-26T20:53:34.928Z,100768.26
2018-07-26T20:58:29.417Z,100769.27
2018-07-26T21:03:23.902Z,100767.78
2018-07-26T21:08:18.892Z,100774.12
2018-07-26T21:13:14.074Z,100775.56
2018-07-26T21:18:09.047Z,100782.23
2018-07-26T21:23:04.104Z,100779.89
2018-07-26T21:27:58.557Z,100779.17
2018-07-26T21:32:53.349Z,100795.36
2018-07-26T21:37:49.704Z,100798.45
2018-07-26T21:42:44.704Z,100805.41
2018-07-26T21:47:40.163Z,100804.80
2018-07-26T21:52:35.588Z,100805.99
2018-07-26T21:57:30.391Z,100815.31
2018-07-26T22:02:25.071Z,100818.17
2018-07-26T22:07:20.473Z,100826.81
2018-07-26T22:12:14.787Z,100825.58
2018-07-26T22:17:09.650Z,100830.64
2018-07-26T22:22:04.197Z,100836.60
2018-07-26T22:27:00.087Z,100841.19
2018-07-26T22:31:55.082Z,100836.81
2018-07-26T22:36:51.951Z,100841.89
2018-07-26T22:41:48.755Z,100841.19
2018-07-26T22:46:43.260Z,100837.11
2018-07-26T22:51:38.741Z,100839.17
2018-07-26T22:56:33.538Z,100838.87
2018-07-26T23:01:28.639Z,100836.53
2018-07-26T23:06:23.828Z,100837.78
2018-07-26T23:11:21.527Z,100832.38
2018-07-26T23:16:15.974Z,100829.27
2018-07-26T23:21:10.307Z,100827.02
2018-07-26T23:26:05.057Z,100830.81
2018-07-26T23:30:59.703Z,100828.20
2018-07-26T23:35:54.224Z,100834.09
2018-07-26T23:40:48.958Z,100830.11
2018-07-26T23:45:43.420Z,100826.77
2018-07-26T23:50:37.873Z,100835.84
2018-07-26T23:55:32.392Z,100839.38
